createdAt,value
2022-12-11T00:00:20.991Z,94.13
2022-12-11T00:03:23.822Z,94.01
2022-12-11T00:06:26.717Z,94.50
2022-12-11T00:09:29.821Z,94.08
2022-12-11T00:12:32.887Z,94.28
2022-12-11T00:15:37.911Z,94.43
2022-12-11T00:18:40.903Z,94.40
2022-12-11T00:21:43.760Z,94.52
2022-12-11T00:24:46.583Z,93.99
2022-12-11T00:27:49.352Z,93.60
2022-12-11T00:30:52.314Z,93.92
2022-12-11T00:33:55.062Z,93.92
2022-12-11T00:36:59.309Z,93.79
2022-12-11T00:40:02.209Z,93.65
2022-12-11T00:43:06.480Z,93.88
2022-12-11T00:46:10.169Z,93.57
2022-12-11T00:49:13.235Z,92.99
2022-12-11T00:52:18.075Z,93.94
2022-12-11T00:55:21.123Z,93.45
2022-12-11T00:58:24.237Z,93.49
2022-12-11T01:01:27.701Z,92.91
2022-12-11T01:04:30.658Z,93.33
2022-12-11T01:07:33.392Z,92.88
2022-12-11T01:10:36.323Z,94.17
2022-12-11T01:13:40.727Z,93.85
2022-12-11T01:16:43.595Z,94.27
2022-12-11T01:19:46.740Z,93.29
2022-12-11T01:22:53.775Z,93.16
2022-12-11T01:25:56.571Z,94.26
2022-12-11T01:28:59.547Z,93.61
2022-12-11T01:32:02.301Z,93.90
2022-12-11T01:35:07.333Z,93.52
2022-12-11T01:38:10.563Z,93.54
2022-12-11T01:41:14.064Z,93.04
2022-12-11T01:44:16.949Z,93.02
2022-12-11T01:47:19.835Z,93.49
2022-12-11T01:50:23.063Z,92.75
2022-12-11T01:53:32.566Z,93.02
2022-12-11T01:56:37.626Z,92.59
2022-12-11T01:59:43.729Z,92.41
2022-12-11T02:02:46.655Z,92.54
2022-12-11T02:05:49.960Z,93.11
2022-12-11T02:08:52.698Z,92.38
2022-12-11T02:11:58.528Z,92.70
2022-12-11T02:15:19.370Z,92.98
2022-12-11T02:18:44.515Z,92.96
2022-12-11T02:21:51.606Z,92.75
2022-12-11T02:25:19.513Z,92.24
2022-12-11T02:28:47.251Z,91.99
2022-12-11T02:32:15.299Z,93.17
2022-12-11T02:35:24.345Z,91.96
2022-12-11T02:38:32.911Z,91.76
2022-12-11T02:41:36.412Z,92.65
2022-12-11T02:44:40.726Z,92.74
2022-12-11T02:47:48.005Z,92.47
2022-12-11T02:50:57.410Z,92.32
2022-12-11T02:54:01.217Z,92.16
2022-12-11T02:57:09.446Z,92.72
2022-12-11T03:00:13.162Z,92.80
2022-12-11T03:03:16.579Z,91.52
2022-12-11T03:06:24.764Z,91.48
2022-12-11T03:09:29.721Z,90.91
2022-12-11T03:12:37.149Z,91.27
2022-12-11T03:16:03.511Z,91.59
2022-12-11T03:19:06.625Z,91.18
2022-12-11T03:22:14.031Z,91.37
2022-12-11T03:25:22.365Z,91.25
2022-12-11T03:28:56.483Z,90.54
2022-12-11T03:32:23.270Z,90.51
2022-12-11T03:35:31.706Z,89.21
2022-12-11T03:39:09.663Z,90.58
2022-12-11T03:42:14.657Z,90.78
2022-12-11T03:45:19.597Z,89.87
2022-12-11T03:48:24.927Z,90.39
2022-12-11T03:51:31.286Z,89.97
2022-12-11T03:54:35.607Z,91.27
2022-12-11T03:57:39.010Z,89.90
2022-12-11T04:00:42.102Z,90.77
2022-12-11T04:03:44.898Z,90.87
2022-12-11T04:06:47.711Z,91.10
2022-12-11T04:09:50.598Z,90.84
2022-12-11T04:12:53.484Z,90.64
2022-12-11T04:15:56.300Z,90.28
2022-12-11T04:19:17.675Z,90.77
2022-12-11T04:22:38.819Z,90.42
2022-12-11T04:25:41.628Z,90.12
2022-12-11T04:28:45.894Z,91.16
2022-12-11T04:31:48.672Z,90.60
2022-12-11T04:34:51.507Z,90.88
2022-12-11T04:37:54.382Z,91.10
2022-12-11T04:41:02.475Z,89.25
2022-12-11T04:44:05.919Z,90.26
2022-12-11T04:47:08.717Z,90.32
2022-12-11T04:50:18.396Z,90.73
2022-12-11T04:53:21.286Z,89.54
2022-12-11T04:56:24.115Z,89.70
2022-12-11T04:59:26.989Z,89.22
2022-12-11T05:02:29.867Z,88.93
2022-12-11T05:05:32.723Z,89.12
2022-12-11T05:08:37.413Z,87.48
2022-12-11T05:11:40.827Z,88.07
2022-12-11T05:14:44.838Z,87.59
2022-12-11T05:17:48.154Z,87.93
2022-12-11T05:20:58.555Z,87.11
2022-12-11T05:24:01.552Z,86.20
2022-12-11T05:27:04.459Z,85.45
2022-12-11T05:30:08.159Z,85.66
2022-12-11T05:33:11.018Z,85.65
2022-12-11T05:36:19.910Z,84.97
2022-12-11T05:39:22.810Z,84.63
2022-12-11T05:42:29.003Z,83.98
2022-12-11T05:45:33.080Z,83.98
2022-12-11T05:48:36.595Z,83.70
2022-12-11T05:51:39.860Z,83.48
2022-12-11T05:54:42.828Z,83.62
2022-12-11T05:57:45.603Z,84.76
2022-12-11T06:00:49.755Z,84.33
2022-12-11T06:03:54.161Z,84.40
2022-12-11T06:06:56.972Z,83.16
2022-12-11T06:10:00.023Z,81.96
2022-12-11T06:13:02.997Z,83.48
2022-12-11T06:16:08.101Z,83.33
2022-12-11T06:19:18.689Z,83.32
2022-12-11T06:22:22.573Z,83.04
2022-12-11T06:25:25.534Z,82.66
2022-12-11T06:28:28.343Z,82.82
2022-12-11T06:31:31.213Z,82.38
2022-12-11T06:34:34.559Z,83.55
2022-12-11T06:37:38.099Z,82.60
2022-12-11T06:40:41.689Z,81.98
2022-12-11T06:43:45.112Z,82.46
2022-12-11T06:46:47.920Z,81.73
2022-12-11T06:49:50.719Z,81.69
2022-12-11T06:52:53.754Z,81.21
2022-12-11T06:55:56.515Z,81.77
2022-12-11T06:59:04.239Z,81.40
2022-12-11T07:02:20.432Z,82.17
2022-12-11T07:05:23.972Z,80.70
2022-12-11T07:08:29.348Z,79.75
2022-12-11T07:11:32.395Z,80.57
2022-12-11T07:14:35.529Z,80.68
2022-12-11T07:17:38.399Z,81.23
2022-12-11T07:20:41.606Z,81.16
2022-12-11T07:23:44.670Z,80.67
2022-12-11T07:26:47.644Z,81.21
2022-12-11T07:29:51.215Z,81.72
2022-12-11T07:32:54.124Z,80.96
2022-12-11T07:35:56.980Z,81.15
2022-12-11T07:39:02.175Z,81.33
2022-12-11T07:42:05.018Z,81.01
2022-12-11T07:45:08.728Z,80.21
2022-12-11T07:48:12.911Z,80.70
2022-12-11T07:51:26.545Z,80.60
2022-12-11T07:54:29.689Z,80.79
2022-12-11T07:57:32.476Z,80.05
2022-12-11T08:00:36.472Z,80.61
2022-12-11T08:03:40.246Z,80.21
2022-12-11T08:06:43.866Z,79.74
2022-12-11T08:09:46.851Z,80.60
2022-12-11T08:12:49.682Z,79.90
2022-12-11T08:15:54.800Z,80.13
2022-12-11T08:18:58.435Z,80.93
2022-12-11T08:22:02.332Z,81.39
2022-12-11T08:25:05.661Z,80.11
2022-12-11T08:28:08.578Z,79.82
2022-12-11T08:31:13.897Z,80.34
2022-12-11T08:34:16.671Z,79.41
2022-12-11T08:37:19.463Z,79.23
2022-12-11T08:40:22.202Z,79.53
2022-12-11T08:43:25.256Z,78.88
2022-12-11T08:46:31.531Z,77.62
2022-12-11T08:49:34.817Z,77.96
2022-12-11T08:52:37.662Z,78.51
2022-12-11T08:55:40.851Z,78.53
2022-12-11T08:58:44.606Z,77.23
2022-12-11T09:01:47.488Z,76.99
2022-12-11T09:04:50.767Z,76.62
2022-12-11T09:07:53.603Z,77.47
2022-12-11T09:10:56.545Z,77.13
2022-12-11T09:14:05.146Z,76.88
2022-12-11T09:17:09.906Z,77.19
2022-12-11T09:20:12.743Z,76.05
2022-12-11T09:23:17.602Z,76.47
2022-12-11T09:26:21.639Z,75.99
2022-12-11T09:29:25.386Z,75.75
2022-12-11T09:32:28.477Z,75.84
2022-12-11T09:35:31.301Z,75.56
2022-12-11T09:38:34.993Z,75.73
2022-12-11T09:41:47.328Z,75.70
2022-12-11T09:45:00.737Z,74.84
2022-12-11T09:48:03.690Z,74.27
2022-12-11T09:51:18.966Z,75.13
2022-12-11T09:54:21.880Z,75.08
2022-12-11T09:57:27.506Z,74.51
2022-12-11T10:01:22.848Z,75.42
2022-12-11T10:04:56.511Z,75.88
2022-12-11T10:08:36.824Z,74.71
2022-12-11T10:12:12.721Z,74.67
2022-12-11T10:15:30.788Z,75.93
2022-12-11T10:18:34.369Z,75.28
2022-12-11T10:21:41.740Z,75.11
2022-12-11T10:25:11.619Z,75.62
2022-12-11T10:28:20.551Z,74.76
2022-12-11T10:31:29.827Z,74.17
2022-12-11T10:34:40.425Z,74.32
2022-12-11T10:37:43.189Z,74.31
2022-12-11T10:41:12.665Z,75.72
2022-12-11T10:44:27.359Z,76.10
2022-12-11T10:47:30.325Z,75.84
2022-12-11T10:50:34.124Z,75.23
2022-12-11T10:53:37.121Z,75.21
2022-12-11T10:56:39.971Z,75.28
2022-12-11T10:59:50.593Z,75.25
2022-12-11T11:02:53.745Z,76.07
2022-12-11T11:06:23.429Z,75.63
2022-12-11T11:09:36.402Z,75.35
2022-12-11T11:12:42.511Z,75.51
2022-12-11T11:15:45.563Z,76.09
2022-12-11T11:18:54.850Z,75.51
2022-12-11T11:22:19.551Z,74.45
2022-12-11T11:25:28.845Z,74.77
2022-12-11T11:28:38.136Z,75.47
2022-12-11T11:31:42.538Z,74.84
2022-12-11T11:34:45.430Z,76.09
2022-12-11T11:38:00.839Z,76.29
2022-12-11T11:41:21.291Z,74.40
2022-12-11T11:44:49.810Z,75.69
2022-12-11T11:48:18.153Z,76.14
2022-12-11T11:51:40.408Z,74.89
2022-12-11T11:55:18.485Z,75.19
2022-12-11T11:58:45.241Z,75.17
2022-12-11T12:01:48.106Z,76.32
2022-12-11T12:04:51.671Z,76.70
2022-12-11T12:08:06.661Z,75.24
2022-12-11T12:11:12.764Z,75.92
2022-12-11T12:18:04.052Z,75.65
2022-12-11T12:21:17.520Z,74.96
2022-12-11T12:24:59.932Z,75.11
2022-12-11T12:28:23.996Z,75.79
2022-12-11T12:31:57.801Z,75.11
2022-12-11T12:35:12.916Z,75.71
2022-12-11T12:38:33.064Z,76.07
2022-12-11T12:42:17.268Z,75.26
2022-12-11T12:45:48.698Z,75.99
2022-12-11T12:48:55.246Z,74.73
2022-12-11T12:51:59.131Z,75.39
2022-12-11T12:55:14.607Z,75.51
2022-12-11T12:58:27.163Z,74.24
2022-12-11T13:01:31.836Z,74.25
2022-12-11T13:04:55.866Z,74.05
2022-12-11T13:08:05.303Z,73.82
2022-12-11T13:11:11.481Z,74.65
2022-12-11T13:14:14.344Z,74.23
2022-12-11T13:17:20.140Z,73.89
2022-12-11T13:20:29.159Z,73.74
2022-12-11T13:23:34.946Z,74.39
2022-12-11T13:26:37.757Z,74.80
2022-12-11T13:29:42.367Z,74.14
2022-12-11T13:32:57.257Z,73.81
2022-12-11T13:36:25.071Z,74.26
2022-12-11T13:39:31.154Z,73.35
2022-12-11T13:42:47.795Z,73.85
2022-12-11T13:45:53.741Z,74.32
2022-12-11T13:49:02.663Z,72.72
2022-12-11T13:52:07.411Z,73.90
2022-12-11T13:55:22.112Z,74.20
2022-12-11T13:58:25.305Z,74.93
2022-12-11T14:01:33.478Z,74.47
2022-12-11T14:04:37.993Z,74.68
2022-12-11T14:07:49.333Z,73.83
2022-12-11T14:10:55.907Z,75.04
2022-12-11T14:14:01.886Z,74.71
2022-12-11T14:17:04.953Z,74.62
2022-12-11T14:20:20.661Z,76.29
2022-12-11T14:23:27.112Z,76.28
2022-12-11T14:26:33.101Z,76.14
2022-12-11T14:29:35.910Z,75.97
2022-12-11T14:32:45.269Z,76.66
2022-12-11T14:35:50.895Z,76.16
2022-12-11T14:38:57.840Z,76.92
2022-12-11T14:42:15.584Z,76.53
2022-12-11T14:45:30.957Z,76.04
2022-12-11T14:48:45.012Z,76.51
2022-12-11T14:51:49.556Z,75.64
2022-12-11T14:54:58.214Z,74.22
2022-12-11T14:58:26.609Z,75.55
2022-12-11T15:01:37.964Z,75.60
2022-12-11T15:04:40.926Z,76.42
2022-12-11T15:07:54.912Z,75.56
2022-12-11T15:11:04.418Z,74.59
2022-12-11T15:14:12.587Z,74.46
2022-12-11T15:17:16.334Z,74.30
2022-12-11T15:20:30.546Z,73.87
2022-12-11T15:23:40.420Z,74.04
2022-12-11T15:26:48.126Z,72.65
2022-12-11T15:29:50.960Z,72.44
2022-12-11T15:33:12.163Z,74.48
2022-12-11T15:36:30.332Z,74.19
2022-12-11T15:39:33.528Z,75.18
2022-12-11T15:42:40.127Z,75.72
2022-12-11T15:45:43.633Z,76.33
2022-12-11T15:48:48.923Z,75.21
2022-12-11T15:51:52.563Z,74.59
2022-12-11T15:54:55.337Z,73.02
2022-12-11T15:58:02.022Z,73.08
2022-12-11T16:01:05.158Z,72.71
2022-12-11T16:04:08.444Z,72.89
2022-12-11T16:07:22.999Z,72.36
2022-12-11T16:10:27.238Z,72.98
2022-12-11T16:13:30.152Z,73.38
2022-12-11T16:16:33.249Z,73.22
2022-12-11T16:19:37.281Z,73.61
2022-12-11T16:22:40.063Z,73.68
2022-12-11T16:25:44.183Z,74.10
2022-12-11T16:28:47.007Z,73.86
2022-12-11T16:31:49.916Z,74.61
2022-12-11T16:34:53.068Z,74.40
2022-12-11T16:37:57.396Z,73.82
2022-12-11T16:41:01.865Z,74.01
2022-12-11T16:44:05.225Z,74.09
2022-12-11T16:47:08.029Z,73.21
2022-12-11T16:50:14.230Z,73.42
2022-12-11T16:53:17.710Z,73.75
2022-12-11T16:56:20.606Z,74.12
2022-12-11T16:59:24.047Z,73.45
2022-12-11T17:02:26.925Z,72.55
2022-12-11T17:05:30.056Z,72.39
2022-12-11T17:08:33.199Z,72.12
2022-12-11T17:11:36.132Z,73.72
2022-12-11T17:14:39.266Z,73.21
2022-12-11T17:17:43.452Z,73.52
2022-12-11T17:20:46.587Z,72.85
2022-12-11T17:23:50.904Z,73.06
2022-12-11T17:26:55.646Z,72.57
2022-12-11T17:29:59.606Z,74.34
2022-12-11T17:33:03.021Z,73.46
2022-12-11T17:36:07.913Z,73.26
2022-12-11T17:39:10.752Z,72.97
2022-12-11T17:42:13.970Z,72.92
2022-12-11T17:45:17.320Z,73.75
2022-12-11T17:48:22.856Z,73.46
2022-12-11T17:51:26.158Z,74.15
2022-12-11T17:54:29.326Z,73.77
2022-12-11T17:57:32.519Z,73.26
2022-12-11T18:00:42.553Z,74.09
2022-12-11T18:03:45.441Z,74.29
2022-12-11T18:06:48.305Z,74.07
2022-12-11T18:09:51.307Z,74.03
2022-12-11T18:12:54.313Z,73.41
2022-12-11T18:16:11.779Z,74.40
2022-12-11T18:19:15.961Z,74.40
2022-12-11T18:22:19.722Z,75.09
2022-12-11T18:25:22.672Z,74.98
2022-12-11T18:28:27.918Z,74.57
2022-12-11T18:31:30.939Z,74.34
2022-12-11T18:34:34.188Z,74.52
2022-12-11T18:37:38.257Z,74.41
2022-12-11T18:40:41.984Z,75.09
2022-12-11T18:43:45.783Z,75.09
2022-12-11T18:46:50.299Z,75.29
2022-12-11T18:49:53.988Z,74.14
2022-12-11T18:52:57.282Z,74.48
2022-12-11T18:56:00.938Z,73.35
2022-12-11T18:59:04.961Z,73.61
2022-12-11T19:02:08.300Z,74.56
2022-12-11T19:05:12.630Z,74.64
2022-12-11T19:08:16.858Z,74.63
2022-12-11T19:11:22.991Z,74.99
2022-12-11T19:14:26.183Z,73.33
2022-12-11T19:17:28.995Z,74.19
2022-12-11T19:20:48.605Z,74.27
2022-12-11T19:23:53.700Z,74.20
2022-12-11T19:26:57.470Z,73.81
2022-12-11T19:30:01.305Z,73.93
2022-12-11T19:33:04.505Z,73.57
2022-12-11T19:36:10.800Z,74.17
2022-12-11T19:39:16.601Z,74.44
2022-12-11T19:42:19.643Z,73.79
2022-12-11T19:45:22.939Z,74.75
2022-12-11T19:48:26.040Z,74.38
2022-12-11T19:51:33.884Z,75.14
2022-12-11T19:54:37.389Z,74.91
2022-12-11T19:57:41.048Z,74.14
2022-12-11T20:00:43.953Z,74.42
2022-12-11T20:03:47.142Z,74.76
2022-12-11T20:06:50.357Z,74.73
2022-12-11T20:09:53.355Z,73.96
2022-12-11T20:12:56.877Z,74.15
2022-12-11T20:16:00.978Z,73.67
2022-12-11T20:19:05.350Z,73.85
2022-12-11T20:22:09.369Z,73.96
2022-12-11T20:25:12.670Z,74.34
2022-12-11T20:28:16.150Z,74.75
2022-12-11T20:31:25.237Z,73.83
2022-12-11T20:34:28.459Z,74.77
2022-12-11T20:37:31.828Z,74.61
2022-12-11T20:40:36.653Z,75.29
2022-12-11T20:43:40.460Z,74.52
2022-12-11T20:46:43.473Z,75.22
2022-12-11T20:49:49.981Z,74.93
2022-12-11T20:52:52.830Z,74.90
2022-12-11T20:55:55.807Z,75.60
2022-12-11T20:59:00.114Z,75.10
2022-12-11T21:02:03.687Z,74.43
2022-12-11T21:05:07.142Z,75.44
2022-12-11T21:08:11.062Z,75.23
2022-12-11T21:11:14.665Z,75.88
2022-12-11T21:14:19.169Z,76.04
2022-12-11T21:17:22.560Z,76.59
2022-12-11T21:20:26.117Z,77.56
2022-12-11T21:23:29.072Z,77.82
2022-12-11T21:26:31.873Z,79.19
2022-12-11T21:29:35.008Z,80.06
2022-12-11T21:32:37.930Z,79.72
2022-12-11T21:35:40.785Z,80.17
2022-12-11T21:38:44.957Z,78.83
2022-12-11T21:41:47.949Z,79.57
2022-12-11T21:48:14.166Z,78.46
2022-12-11T21:51:36.129Z,77.64
2022-12-11T21:54:39.351Z,78.40
2022-12-11T21:57:42.089Z,78.71
2022-12-11T22:00:47.555Z,77.88
2022-12-11T22:03:51.503Z,78.42
2022-12-11T22:06:54.316Z,78.46
2022-12-11T22:09:58.164Z,78.61
2022-12-11T22:13:00.974Z,78.17
2022-12-11T22:16:03.918Z,78.63
2022-12-11T22:19:06.770Z,78.69
2022-12-11T22:22:09.567Z,78.15
2022-12-11T22:25:12.788Z,78.03
2022-12-11T22:28:15.896Z,76.91
2022-12-11T22:31:23.046Z,76.60
2022-12-11T22:34:25.860Z,76.78
2022-12-11T22:37:29.332Z,77.53
2022-12-11T22:40:33.099Z,76.67
2022-12-11T22:43:35.884Z,77.30
2022-12-11T22:46:38.662Z,76.97
2022-12-11T22:49:41.822Z,77.47
2022-12-11T22:52:45.602Z,78.04
2022-12-11T22:55:48.546Z,77.94
2022-12-11T22:58:51.408Z,78.14
2022-12-11T23:01:54.332Z,77.51
2022-12-11T23:04:57.168Z,77.52
2022-12-11T23:08:00.182Z,77.04
2022-12-11T23:11:09.923Z,76.91
2022-12-11T23:14:16.146Z,77.03
2022-12-11T23:17:18.942Z,76.62
2022-12-11T23:20:25.489Z,76.70
2022-12-11T23:23:28.763Z,76.34
2022-12-11T23:26:32.119Z,75.32
2022-12-11T23:29:35.005Z,75.53
2022-12-11T23:32:37.930Z,75.53
2022-12-11T23:35:41.066Z,76.11
2022-12-11T23:38:46.241Z,74.73
2022-12-11T23:41:52.402Z,75.03
2022-12-11T23:44:55.403Z,75.52
2022-12-11T23:47:58.173Z,75.45
2022-12-11T23:51:04.352Z,75.54
2022-12-11T23:54:07.549Z,75.39
2022-12-11T23:57:10.238Z,75.65
